Time;durP1;ratioP1;P1;durP2;ratioP2;P2;SDS_P1;SDS_P2;PMS_P1;PMS_P2;Temp;Humidity;BMP_temperature;BMP_pressure;BME280_temperature;BME280_humidity;BME280_pressure;Samples;Min_cycle;Max_cycle;Signal;HPM_P1;HPM_P2
2022/04/09 00:03:00;;;;;;;3.13;0.93;;;17.20;62.00;;;;;;10455419;28;20116;-50
2022/04/09 00:08:01;;;;;;;1.30;0.50;;;17.10;62.20;;;;;;10456891;28;20477;-52
2022/04/09 00:13:01;;;;;;;2.30;0.90;;;17.20;62.00;;;;;;10456734;28;20029;-48
2022/04/09 00:18:02;;;;;;;0.90;0.40;;;17.20;61.90;;;;;;10456754;28;20033;-49
2022/04/09 00:23:03;;;;;;;1.70;0.40;;;17.20;61.90;;;;;;10455850;28;20489;-49
2022/04/09 00:28:04;;;;;;;2.55;0.70;;;17.20;62.00;;;;;;10456053;28;20057;-51
2022/04/09 00:33:05;;;;;;;1.75;1.02;;;17.20;62.00;;;;;;10454978;28;20530;-47
2022/04/09 00:38:06;;;;;;;0.65;0.40;;;17.20;61.90;;;;;;10464951;28;20025;-49
2022/04/09 00:43:06;;;;;;;1.67;0.70;;;17.20;61.80;;;;;;10455762;28;20032;-49
2022/04/09 00:48:10;;;;;;;0.68;0.35;;;17.20;61.70;;;;;;10455459;28;20037;-49
2022/04/09 00:53:13;;;;;;;0.93;0.32;;;17.30;61.70;;;;;;10455311;28;20023;-48
2022/04/09 00:58:15;;;;;;;1.00;0.60;;;17.20;61.70;;;;;;10453816;28;20029;-49
2022/04/09 01:03:18;;;;;;;1.77;0.88;;;17.20;61.70;;;;;;10454938;28;20025;-48
2022/04/09 01:08:19;;;;;;;1.02;0.40;;;17.30;61.60;;;;;;10454717;28;20493;-52
2022/04/09 01:13:21;;;;;;;1.38;0.40;;;17.30;61.50;;;;;;10454771;28;20056;-51
2022/04/09 01:18:22;;;;;;;0.98;0.30;;;17.20;61.50;;;;;;10453046;28;20043;-52
2022/04/09 01:23:22;;;;;;;1.40;0.55;;;17.30;61.40;;;;;;10453167;28;20119;-49
2022/04/09 01:28:24;;;;;;;1.13;0.47;;;17.30;61.60;;;;;;10453727;28;20037;-50
2022/04/09 01:33:25;;;;;;;0.90;0.52;;;17.30;61.40;;;;;;10453103;28;20074;-48
2022/04/09 01:38:26;;;;;;;1.85;0.40;;;17.30;61.30;;;;;;10455275;28;20130;-48
2022/04/09 01:43:27;;;;;;;0.98;0.52;;;17.20;61.30;;;;;;10453948;28;20033;-47
2022/04/09 01:48:27;;;;;;;1.17;0.40;;;17.30;61.30;;;;;;10453754;28;20485;-51
2022/04/09 01:53:28;;;;;;;2.15;0.70;;;17.30;61.40;;;;;;10462305;28;20045;-48
2022/04/09 01:58:29;;;;;;;1.00;0.50;;;17.30;61.40;;;;;;10462006;28;20424;-49
2022/04/09 02:03:31;;;;;;;0.65;0.40;;;17.30;61.30;;;;;;10462186;28;20397;-47
2022/04/09 02:08:32;;;;;;;1.95;0.40;;;17.20;61.40;;;;;;10461372;28;20044;-46
2022/04/09 02:13:33;;;;;;;0.73;0.47;;;17.30;61.20;;;;;;10461727;28;20029;-47
2022/04/09 02:18:34;;;;;;;0.55;0.30;;;17.30;61.20;;;;;;10461190;28;20059;-50
2022/04/09 02:23:35;;;;;;;1.38;0.30;;;17.20;61.20;;;;;;10461007;28;20393;-48
2022/04/09 02:28:36;;;;;;;0.90;0.30;;;17.30;61.00;;;;;;10460447;28;20405;-49
2022/04/09 02:33:36;;;;;;;0.95;0.50;;;17.20;61.00;;;;;;10460776;28;20103;-49
2022/04/09 02:38:42;;;;;;;0.70;0.40;;;17.20;61.20;;;;;;10460991;28;20041;-48
2022/04/09 02:43:45;;;;;;;0.50;0.30;;;17.30;61.00;;;;;;10460112;28;20033;-49
2022/04/09 02:48:46;;;;;;;2.90;0.57;;;17.30;61.10;;;;;;10459739;28;20087;-49
2022/04/09 02:53:47;;;;;;;1.30;0.43;;;17.30;60.90;;;;;;10460123;28;20126;-49
2022/04/09 02:58:48;;;;;;;1.20;0.43;;;17.30;60.90;;;;;;10459630;28;20033;-49
2022/04/09 03:03:49;;;;;;;0.47;0.30;;;17.20;61.10;;;;;;10457576;28;20029;-47
2022/04/09 03:08:50;;;;;;;1.73;0.40;;;17.30;61.00;;;;;;10459078;28;20443;-48
2022/04/09 03:13:50;;;;;;;1.02;0.40;;;17.20;61.00;;;;;;10457763;28;20385;-48
2022/04/09 03:18:51;;;;;;;0.80;0.50;;;17.30;61.00;;;;;;10459227;28;20493;-51
2022/04/09 03:23:52;;;;;;;0.75;0.32;;;17.30;60.80;;;;;;10457438;28;20120;-48
2022/04/09 03:28:53;;;;;;;1.58;0.93;;;17.20;61.00;;;;;;10458001;28;20421;-49
2022/04/09 03:33:54;;;;;;;0.30;0.30;;;17.30;60.90;;;;;;10458927;28;20033;-49
2022/04/09 03:38:55;;;;;;;0.75;0.40;;;17.30;60.80;;;;;;10458414;28;20052;-49
2022/04/09 03:43:56;;;;;;;1.15;0.52;;;17.20;60.90;;;;;;10458056;28;20091;-48
2022/04/09 03:48:57;;;;;;;0.68;0.38;;;17.20;60.90;;;;;;10473225;28;20090;-50
2022/04/09 03:53:58;;;;;;;0.73;0.40;;;17.20;60.80;;;;;;10457401;28;20025;-51
2022/04/09 03:58:59;;;;;;;1.23;0.40;;;17.20;60.80;;;;;;10452081;28;20033;-48
2022/04/09 04:03:59;;;;;;;1.08;0.40;;;17.20;60.80;;;;;;10456636;28;20493;-47
2022/04/09 04:09:00;;;;;;;0.70;0.30;;;17.20;60.70;;;;;;10455687;28;20044;-47
2022/04/09 04:14:01;;;;;;;0.82;0.43;;;17.20;60.90;;;;;;10455849;28;20075;-47
2022/04/09 04:19:02;;;;;;;0.57;0.30;;;17.20;61.40;;;;;;10455590;28;20033;-49
2022/04/09 04:24:03;;;;;;;0.88;0.30;;;17.20;60.70;;;;;;10474210;28;20032;-51
2022/04/09 04:29:04;;;;;;;0.40;0.40;;;17.20;60.70;;;;;;10473599;28;20236;-48
2022/04/09 04:34:05;;;;;;;1.30;0.63;;;17.20;60.80;;;;;;10466725;28;20116;-47
2022/04/09 04:39:06;;;;;;;1.27;0.30;;;17.10;60.90;;;;;;10454563;28;20807;-49
2022/04/09 04:44:07;;;;;;;1.35;0.40;;;17.20;60.70;;;;;;10468944;28;20025;-50
2022/04/09 04:49:08;;;;;;;1.15;0.35;;;17.20;60.80;;;;;;10453257;28;20504;-49
2022/04/09 04:54:09;;;;;;;0.68;0.30;;;17.20;60.70;;;;;;10452658;28;20048;-48
2022/04/09 04:59:09;;;;;;;0.47;0.20;;;17.20;60.60;;;;;;10454961;28;20065;-49
2022/04/09 05:04:10;;;;;;;0.90;0.30;;;17.20;60.60;;;;;;10451775;28;20093;-47
2022/04/09 05:09:13;;;;;;;1.67;0.47;;;17.20;60.50;;;;;;10453788;28;20115;-51
2022/04/09 05:14:14;;;;;;;0.40;0.30;;;17.20;60.70;;;;;;10453819;28;20025;-49
2022/04/09 05:19:14;;;;;;;4.03;0.60;;;17.20;60.60;;;;;;10454545;28;20135;-48
2022/04/09 05:24:16;;;;;;;3.78;0.85;;;17.20;61.00;;;;;;10454429;28;20061;-48
2022/04/09 05:29:16;;;;;;;4.70;0.70;;;17.20;61.30;;;;;;10454104;28;20126;-48
2022/04/09 05:34:17;;;;;;;5.47;1.00;;;17.50;61.20;;;;;;10470825;28;20118;-49
2022/04/09 05:39:18;;;;;;;7.10;1.42;;;17.60;61.20;;;;;;10454108;28;20104;-47
2022/04/09 05:44:19;;;;;;;4.70;0.80;;;17.60;62.50;;;;;;10453568;28;20385;-50
2022/04/09 05:49:20;;;;;;;7.57;1.73;;;17.40;62.80;;;;;;10451978;28;20029;-50
2022/04/09 05:54:21;;;;;;;11.13;1.08;;;17.40;63.40;;;;;;10452432;28;20079;-50
2022/04/09 05:59:25;;;;;;;7.18;1.52;;;17.20;63.60;;;;;;10447018;28;20068;-50
2022/04/09 06:04:26;;;;;;;9.90;1.35;;;17.10;63.80;;;;;;10452879;28;20104;-53
2022/04/09 06:09:27;;;;;;;7.72;1.30;;;17.00;64.50;;;;;;10450174;28;20033;-54
2022/04/09 06:14:28;;;;;;;6.35;0.93;;;16.90;64.20;;;;;;10452721;28;20029;-52
2022/04/09 06:19:29;;;;;;;8.75;1.17;;;16.80;64.20;;;;;;10465682;28;20396;-52
2022/04/09 06:24:30;;;;;;;10.52;1.85;;;16.80;64.00;;;;;;10449166;28;20036;-53
2022/04/09 06:29:31;;;;;;;7.25;1.15;;;16.80;63.80;;;;;;10442592;28;20076;-53
2022/04/09 06:34:32;;;;;;;9.20;0.98;;;16.90;63.50;;;;;;10460463;28;20028;-55
2022/04/09 06:39:34;;;;;;;12.90;1.20;;;17.00;63.30;;;;;;10478414;28;20463;-52
2022/04/09 06:44:35;;;;;;;10.40;2.47;;;17.00;63.20;;;;;;10478110;28;20036;-53
2022/04/09 06:49:39;;;;;;;9.10;1.15;;;17.10;62.90;;;;;;10476706;28;20037;-54
2022/04/09 06:54:39;;;;;;;8.45;1.27;;;17.10;62.90;;;;;;10465136;28;20052;-52
2022/04/09 06:59:40;;;;;;;8.70;1.60;;;16.90;63.10;;;;;;10467648;28;20063;-53
2022/04/09 07:04:41;;;;;;;10.40;1.63;;;16.90;63.40;;;;;;10464510;28;20028;-50
2022/04/09 07:09:43;;;;;;;24.02;4.32;;;17.00;63.40;;;;;;10481899;28;20040;-50
2022/04/09 07:14:43;;;;;;;16.80;2.10;;;16.90;63.60;;;;;;10474619;28;20025;-51
2022/04/09 07:19:44;;;;;;;11.10;2.13;;;16.90;63.90;;;;;;10466077;28;20493;-52
2022/04/09 07:24:45;;;;;;;13.52;1.80;;;16.90;64.20;;;;;;10459582;28;20404;-51
2022/04/09 07:29:47;;;;;;;10.98;2.42;;;16.90;64.50;;;;;;10471592;28;20587;-53
2022/04/09 07:34:47;;;;;;;12.43;2.22;;;16.90;64.40;;;;;;10457400;28;20108;-51
2022/04/09 07:39:48;;;;;;;17.98;2.15;;;17.00;64.60;;;;;;10485585;28;20396;-51
2022/04/09 07:44:49;;;;;;;12.98;2.25;;;17.00;63.80;;;;;;10474030;28;20042;-52
2022/04/09 07:49:50;;;;;;;18.45;3.05;;;17.00;63.90;;;;;;10457462;28;20087;-51
2022/04/09 07:54:51;;;;;;;19.83;3.80;;;17.00;64.00;;;;;;10462419;28;20025;-48
2022/04/09 07:59:55;;;;;;;10.35;2.08;;;17.10;63.80;;;;;;10462020;28;20039;-51
2022/04/09 08:04:56;;;;;;;16.23;3.53;;;17.10;64.00;;;;;;10473817;28;20067;-50
2022/04/09 08:09:57;;;;;;;23.05;3.05;;;17.10;64.10;;;;;;10477097;28;20025;-49
2022/04/09 08:14:58;;;;;;;14.57;2.05;;;17.10;64.40;;;;;;10475806;28;20032;-55
2022/04/09 08:20:00;;;;;;;15.27;2.63;;;17.00;64.60;;;;;;10463695;28;20032;-54
2022/04/09 08:25:02;;;;;;;15.73;2.42;;;16.80;64.70;;;;;;10475114;28;20029;-53
2022/04/09 08:30:07;;;;;;;11.60;2.55;;;16.80;64.90;;;;;;10453014;28;20029;-53
2022/04/09 08:35:08;;;;;;;26.05;4.00;;;16.70;65.60;;;;;;10455386;28;20060;-50
2022/04/09 08:40:16;;;;;;;20.80;3.15;;;16.70;66.00;;;;;;10454583;28;20049;-49
2022/04/09 08:45:17;;;;;;;19.30;3.38;;;16.70;66.20;;;;;;10466418;28;20457;-49
2022/04/09 08:50:20;;;;;;;35.75;4.65;;;16.60;66.20;;;;;;10473615;28;20029;-50
2022/04/09 08:55:21;;;;;;;29.92;3.03;;;16.60;66.50;;;;;;10485641;28;20033;-46
2022/04/09 09:00:22;;;;;;;35.03;5.10;;;16.60;66.60;;;;;;10461471;28;20545;-49
2022/04/09 09:05:37;;;;;;;14.40;2.72;;;16.60;66.40;;;;;;10469000;28;20078;-49
2022/04/09 09:10:40;;;;;;;16.20;2.63;;;16.60;66.20;;;;;;10454826;28;21286;-50
2022/04/09 09:15:53;;;;;;;25.50;3.60;;;16.50;66.50;;;;;;10440505;28;20414;-52
2022/04/09 09:20:59;;;;;;;28.38;3.60;;;16.50;66.90;;;;;;10454750;28;20029;-49
2022/04/09 09:26:02;;;;;;;27.88;3.90;;;16.50;66.90;;;;;;10453987;28;20121;-50
2022/04/09 09:31:04;;;;;;;22.88;3.72;;;16.50;67.10;;;;;;10452472;28;20033;-51
2022/04/09 09:36:05;;;;;;;23.10;5.13;;;16.50;67.50;;;;;;10466756;28;20025;-50
2022/04/09 09:41:25;;;;;;;29.73;4.22;;;16.60;67.10;;;;;;10453612;28;20040;-49
2022/04/09 09:46:26;;;;;;;20.43;2.40;;;16.60;67.10;;;;;;10447906;28;20641;-50
2022/04/09 09:51:27;;;;;;;23.52;3.25;;;16.70;66.90;;;;;;10455770;28;20037;-49
2022/04/09 09:56:44;;;;;;;10.48;2.67;;;16.60;67.00;;;;;;10479365;28;20047;-49
2022/04/09 10:01:47;;;;;;;23.30;3.75;;;16.50;67.10;;;;;;10453006;28;20040;-50
2022/04/09 10:06:48;;;;;;;20.05;3.25;;;16.40;67.60;;;;;;10451551;28;20051;-49
2022/04/09 10:11:50;;;;;;;23.10;3.75;;;16.40;67.60;;;;;;10456179;28;20037;-48
2022/04/09 10:16:52;;;;;;;20.70;3.22;;;16.40;67.60;;;;;;10469015;28;20029;-47
2022/04/09 10:21:53;;;;;;;21.15;3.45;;;16.50;68.10;;;;;;10459290;28;20040;-48
2022/04/09 10:26:56;;;;;;;15.45;2.30;;;16.40;66.90;;;;;;10459185;28;20132;-48
2022/04/09 10:31:56;;;;;;;18.60;4.13;;;16.50;66.90;;;;;;10459666;28;20037;-49
2022/04/09 10:36:59;;;;;;;16.80;5.05;;;16.50;66.10;;;;;;10467555;28;20037;-52
2022/04/09 10:42:02;;;;;;;25.65;3.05;;;16.50;65.30;;;;;;10457876;28;20036;-50
2022/04/09 10:47:04;;;;;;;14.73;2.50;;;16.60;65.20;;;;;;10457260;28;20508;-48
2022/04/09 10:52:17;;;;;;;21.27;3.67;;;16.60;65.20;;;;;;10459436;28;20445;-48
2022/04/09 10:57:23;;;;;;;19.30;2.42;;;16.70;65.70;;;;;;10474084;28;20107;-54
2022/04/09 11:02:25;;;;;;;9.80;3.17;;;16.80;65.50;;;;;;10459714;28;20033;-47
2022/04/09 11:07:27;;;;;;;12.57;2.40;;;16.90;65.30;;;;;;10459258;28;20020;-48
2022/04/09 11:12:43;;;;;;;15.00;2.28;;;16.90;65.80;;;;;;10458965;28;20044;-47
2022/04/09 11:17:46;;;;;;;13.38;2.88;;;16.90;66.30;;;;;;10458886;28;20067;-47
2022/04/09 11:22:53;;;;;;;14.65;2.30;;;16.80;66.20;;;;;;10456951;28;20041;-46
2022/04/09 11:28:17;;;;;;;9.73;1.75;;;16.80;66.50;;;;;;10458648;28;20053;-48
2022/04/09 11:33:18;;;;;;;9.68;1.95;;;16.70;66.60;;;;;;10457921;28;20042;-49
2022/04/09 11:38:22;;;;;;;5.90;1.50;;;16.70;66.70;;;;;;10467461;28;20032;-49
2022/04/09 11:43:24;;;;;;;10.07;1.85;;;16.60;66.30;;;;;;10457845;28;20040;-49
2022/04/09 11:48:25;;;;;;;8.65;1.40;;;16.50;66.60;;;;;;10458327;28;20051;-48
2022/04/09 11:53:26;;;;;;;10.68;2.03;;;16.60;66.70;;;;;;10456178;28;20060;-48
2022/04/09 11:58:33;;;;;;;12.32;2.33;;;16.70;66.00;;;;;;10457389;28;20051;-48
2022/04/09 12:03:34;;;;;;;7.95;1.70;;;16.80;65.30;;;;;;10457112;28;20109;-48
2022/04/09 12:08:36;;;;;;;8.52;2.50;;;16.70;65.60;;;;;;10456963;28;20036;-50
2022/04/09 12:13:39;;;;;;;5.20;1.50;;;16.60;65.40;;;;;;10453332;28;20381;-48
2022/04/09 12:18:41;;;;;;;9.90;1.33;;;16.50;65.70;;;;;;10452496;28;20067;-51
2022/04/09 12:23:42;;;;;;;9.40;1.38;;;16.50;65.80;;;;;;10452532;28;20081;-48
2022/04/09 12:28:43;;;;;;;6.53;1.40;;;16.70;65.20;;;;;;10454193;28;20142;-47
2022/04/09 12:33:58;;;;;;;11.88;2.10;;;16.70;64.80;;;;;;10448836;28;20052;-48
2022/04/09 12:39:00;;;;;;;13.25;2.78;;;16.70;64.90;;;;;;10477858;28;20029;-49
2022/04/09 12:44:01;;;;;;;7.15;1.58;;;16.60;65.30;;;;;;10437824;28;20040;-47
2022/04/09 12:49:03;;;;;;;8.02;1.48;;;16.60;65.80;;;;;;10454739;28;20396;-47
2022/04/09 12:54:04;;;;;;;8.23;1.20;;;16.50;66.10;;;;;;10453916;28;20036;-47
2022/04/09 12:59:05;;;;;;;11.63;1.73;;;16.50;66.40;;;;;;10453247;28;20032;-51
2022/04/09 13:04:07;;;;;;;8.80;1.20;;;16.50;66.50;;;;;;10453440;28;20547;-48
2022/04/09 13:09:09;;;;;;;8.10;1.20;;;16.40;66.70;;;;;;10454158;28;20361;-46
2022/04/09 13:14:09;;;;;;;4.40;1.55;;;16.40;66.80;;;;;;10454091;28;20134;-46
2022/04/09 13:19:10;;;;;;;9.27;1.85;;;16.40;66.90;;;;;;10454132;28;20029;-50
2022/04/09 13:24:11;;;;;;;5.25;1.20;;;16.40;66.90;;;;;;10454100;28;20485;-48
2022/04/09 13:29:12;;;;;;;6.38;1.27;;;16.50;67.00;;;;;;10453483;28;20060;-47
2022/04/09 13:34:17;;;;;;;3.95;1.10;;;16.50;66.90;;;;;;10458613;28;20055;-49
2022/04/09 13:39:17;;;;;;;5.38;1.23;;;16.50;67.00;;;;;;10457698;28;20465;-46
2022/04/09 13:44:18;;;;;;;9.80;1.85;;;16.80;66.40;;;;;;10455234;28;20036;-49
2022/04/09 13:49:20;;;;;;;6.35;0.90;;;16.90;66.10;;;;;;10461938;28;20033;-47
2022/04/09 13:54:20;;;;;;;5.95;0.90;;;17.00;65.60;;;;;;10462339;28;20060;-47
2022/04/09 13:59:21;;;;;;;5.68;0.88;;;17.00;65.50;;;;;;10461608;28;20063;-47
2022/04/09 14:04:22;;;;;;;8.35;1.35;;;17.00;65.80;;;;;;10461951;28;20373;-47
2022/04/09 14:09:23;;;;;;;5.13;0.90;;;17.00;65.90;;;;;;10461676;28;20033;-47
2022/04/09 14:14:25;;;;;;;9.43;1.38;;;17.10;65.60;;;;;;10460878;28;20465;-48
2022/04/09 14:19:26;;;;;;;6.38;1.75;;;17.10;65.70;;;;;;10461272;28;20179;-48
2022/04/09 14:24:27;;;;;;;5.22;1.30;;;17.00;65.40;;;;;;10460233;28;20070;-47
2022/04/09 14:29:28;;;;;;;4.40;1.10;;;16.90;65.40;;;;;;10459728;28;20051;-48
2022/04/09 14:34:29;;;;;;;7.72;1.02;;;16.80;65.40;;;;;;10461085;28;20104;-48
2022/04/09 14:39:30;;;;;;;2.75;0.73;;;16.80;65.40;;;;;;10459766;28;20031;-49
2022/04/09 14:44:31;;;;;;;7.38;1.48;;;16.70;65.40;;;;;;10458952;28;20047;-48
2022/04/09 14:49:31;;;;;;;4.32;0.70;;;16.60;65.60;;;;;;10475401;28;20037;-48
2022/04/09 14:54:33;;;;;;;7.03;0.98;;;16.60;65.60;;;;;;10459471;28;20550;-52
2022/04/09 14:59:34;;;;;;;5.07;0.68;;;16.50;65.70;;;;;;10458308;28;20102;-49
2022/04/09 15:04:37;;;;;;;6.70;1.30;;;16.40;65.70;;;;;;10459463;28;20068;-48
2022/04/09 15:09:39;;;;;;;12.27;1.55;;;16.40;66.70;;;;;;10459167;28;20032;-47
2022/04/09 15:14:40;;;;;;;6.30;0.95;;;16.50;66.90;;;;;;10459505;28;20044;-48
2022/04/09 15:19:41;;;;;;;17.10;1.70;;;16.60;66.20;;;;;;10458654;28;20029;-50
2022/04/09 15:24:42;;;;;;;21.38;1.73;;;16.60;66.80;;;;;;10454831;28;20152;-51
2022/04/09 15:29:43;;;;;;;10.68;1.50;;;16.70;66.90;;;;;;10453882;28;20386;-50
2022/04/09 15:34:43;;;;;;;9.45;1.40;;;16.60;66.80;;;;;;10465803;28;20020;-50
2022/04/09 15:39:45;;;;;;;26.65;2.58;;;16.50;67.00;;;;;;10457301;28;20048;-50
2022/04/09 15:44:47;;;;;;;11.10;1.30;;;16.50;67.10;;;;;;10445121;28;20029;-48
2022/04/09 15:49:48;;;;;;;7.82;1.23;;;16.50;66.70;;;;;;10457140;28;20045;-50
2022/04/09 15:54:49;;;;;;;13.73;1.83;;;16.50;67.10;;;;;;10454355;28;20021;-49
2022/04/09 15:59:50;;;;;;;10.98;1.73;;;16.50;67.50;;;;;;10456128;28;20043;-48
2022/04/09 16:04:52;;;;;;;8.38;2.03;;;16.60;67.70;;;;;;10456629;28;20521;-52
2022/04/09 16:09:53;;;;;;;9.40;1.77;;;16.50;67.90;;;;;;10457151;28;20060;-47
2022/04/09 16:14:54;;;;;;;8.13;1.65;;;16.70;66.80;;;;;;10456590;28;20496;-49
2022/04/09 16:19:55;;;;;;;12.45;2.88;;;16.80;69.60;;;;;;10455990;28;20037;-47
2022/04/09 16:24:56;;;;;;;8.82;1.67;;;17.10;68.50;;;;;;10456711;28;20020;-49
2022/04/09 16:29:57;;;;;;;5.45;1.40;;;17.00;67.10;;;;;;10455053;28;20041;-49
2022/04/09 16:34:58;;;;;;;6.47;1.17;;;17.10;67.30;;;;;;10465691;28;20048;-47
2022/04/09 16:39:59;;;;;;;5.93;1.83;;;17.00;67.20;;;;;;10455769;28;20374;-50
2022/04/09 16:45:00;;;;;;;9.48;1.85;;;17.00;67.70;;;;;;10454960;28;20032;-48
2022/04/09 16:50:00;;;;;;;14.15;2.65;;;16.80;67.80;;;;;;10453872;28;20033;-51
2022/04/09 16:55:01;;;;;;;13.55;2.45;;;16.70;68.50;;;;;;10454086;28;20535;-49
2022/04/09 17:00:05;;;;;;;10.18;1.98;;;16.70;68.80;;;;;;10454582;28;20028;-50
2022/04/09 17:05:06;;;;;;;13.38;1.88;;;16.70;68.70;;;;;;10451248;28;20050;-49
2022/04/09 17:10:08;;;;;;;10.88;1.35;;;16.60;68.30;;;;;;10450838;28;20056;-49
2022/04/09 17:15:09;;;;;;;6.43;1.48;;;16.40;68.10;;;;;;10452290;28;20025;-47
2022/04/09 17:20:10;;;;;;;15.55;2.55;;;16.40;67.50;;;;;;10453053;28;20032;-51
2022/04/09 17:25:11;;;;;;;7.22;1.90;;;16.40;67.20;;;;;;10454737;28;20504;-48
2022/04/09 17:30:12;;;;;;;10.18;2.20;;;16.40;67.60;;;;;;10452532;28;20045;-51
2022/04/09 17:35:14;;;;;;;7.38;1.63;;;16.40;66.50;;;;;;10453415;28;20118;-48
2022/04/09 17:40:16;;;;;;;5.18;1.20;;;16.60;65.90;;;;;;10453131;28;20354;-52
2022/04/09 17:45:16;;;;;;;8.07;1.75;;;16.80;65.40;;;;;;10453710;28;20020;-48
2022/04/09 17:50:17;;;;;;;9.13;1.70;;;16.70;65.60;;;;;;10453727;28;20074;-53
2022/04/09 17:55:18;;;;;;;4.25;1.33;;;16.70;65.30;;;;;;10453427;28;20059;-48
2022/04/09 18:00:19;;;;;;;8.18;1.80;;;16.70;65.20;;;;;;10448774;28;20029;-47
2022/04/09 18:05:19;;;;;;;5.32;1.10;;;16.80;64.80;;;;;;10452835;28;20072;-50
2022/04/09 18:10:21;;;;;;;6.95;1.30;;;16.80;64.70;;;;;;10453019;28;20040;-47
2022/04/09 18:15:22;;;;;;;5.15;1.15;;;16.80;64.80;;;;;;10451595;28;20032;-47
2022/04/09 18:20:23;;;;;;;6.63;1.48;;;16.70;65.10;;;;;;10457979;28;20507;-50
2022/04/09 18:25:24;;;;;;;4.97;1.85;;;16.70;65.00;;;;;;10447265;28;20253;-50
2022/04/09 18:30:25;;;;;;;12.50;1.70;;;16.70;65.60;;;;;;10451553;28;20048;-48
2022/04/09 18:35:26;;;;;;;4.88;1.52;;;16.70;66.50;;;;;;10473984;28;20090;-48
2022/04/09 18:40:26;;;;;;;5.35;1.20;;;16.60;66.00;;;;;;10458709;28;20077;-47
2022/04/09 18:45:27;;;;;;;5.78;1.70;;;16.60;65.90;;;;;;10458818;28;20444;-48
2022/04/09 18:50:31;;;;;;;9.73;1.70;;;16.60;65.60;;;;;;10457771;28;20083;-49
2022/04/09 18:55:32;;;;;;;3.75;1.10;;;16.70;65.30;;;;;;10453246;28;20032;-49
2022/04/09 19:00:33;;;;;;;2.95;0.82;;;16.70;65.70;;;;;;10458504;28;20094;-49
2022/04/09 19:05:33;;;;;;;6.18;1.27;;;16.70;65.50;;;;;;10450646;28;20044;-49
2022/04/09 19:10:34;;;;;;;6.25;1.60;;;16.70;65.00;;;;;;10456644;28;20432;-49
2022/04/09 19:15:36;;;;;;;5.85;1.42;;;16.60;65.20;;;;;;10457548;28;20029;-49
2022/04/09 19:20:37;;;;;;;3.40;1.08;;;16.70;64.90;;;;;;10458750;28;20041;-48
2022/04/09 19:25:38;;;;;;;7.53;1.60;;;16.80;64.40;;;;;;10458353;28;20147;-50
2022/04/09 19:30:39;;;;;;;6.80;1.77;;;16.90;64.00;;;;;;10456284;28;20120;-51
2022/04/09 19:35:40;;;;;;;4.22;1.00;;;16.90;64.00;;;;;;10458726;28;20024;-53
2022/04/09 19:40:41;;;;;;;3.67;1.13;;;16.90;64.10;;;;;;10457185;28;20110;-52
2022/04/09 19:45:41;;;;;;;3.50;1.08;;;17.00;63.90;;;;;;10457486;28;20116;-49
2022/04/09 19:50:42;;;;;;;5.03;1.15;;;17.00;64.00;;;;;;10456814;28;20551;-53
2022/04/09 19:55:43;;;;;;;4.53;1.08;;;17.00;64.20;;;;;;10455582;28;20067;-53
2022/04/09 20:00:44;;;;;;;3.45;1.00;;;17.10;63.70;;;;;;10454406;28;20147;-55
2022/04/09 20:05:46;;;;;;;3.67;1.20;;;17.00;63.60;;;;;;10454345;28;20123;-55
2022/04/09 20:10:47;;;;;;;3.58;1.20;;;17.00;63.70;;;;;;10454223;28;20033;-54
2022/04/09 20:15:48;;;;;;;3.03;1.23;;;17.00;63.50;;;;;;10456647;28;20029;-54
2022/04/09 20:20:49;;;;;;;2.22;0.90;;;17.10;63.20;;;;;;10454778;28;20041;-54
2022/04/09 20:25:50;;;;;;;2.83;1.60;;;17.10;63.10;;;;;;10456228;28;20061;-53
2022/04/09 20:30:51;;;;;;;1.58;0.90;;;17.10;63.10;;;;;;10454203;28;20572;-52
2022/04/09 20:35:52;;;;;;;3.97;1.30;;;17.00;63.30;;;;;;10480789;28;20053;-55
2022/04/09 20:40:56;;;;;;;3.92;1.00;;;17.10;63.00;;;;;;10455436;28;20479;-53
2022/04/09 20:45:57;;;;;;;2.38;1.08;;;17.10;62.80;;;;;;10455852;28;20033;-53
2022/04/09 20:50:57;;;;;;;1.85;0.70;;;17.20;62.60;;;;;;10455079;28;20029;-54
2022/04/09 20:55:58;;;;;;;3.10;0.95;;;17.20;62.50;;;;;;10454437;28;20489;-54
2022/04/09 21:00:59;;;;;;;2.60;0.73;;;17.20;62.10;;;;;;10453684;28;20397;-52
2022/04/09 21:06:00;;;;;;;2.13;0.88;;;17.20;62.20;;;;;;10453498;28;20155;-56
2022/04/09 21:11:01;;;;;;;3.05;1.30;;;17.20;62.40;;;;;;10452843;28;20072;-54
2022/04/09 21:16:05;;;;;;;1.58;0.90;;;17.20;62.30;;;;;;10454420;28;20109;-52
2022/04/09 21:21:05;;;;;;;2.83;0.90;;;17.20;62.20;;;;;;10454276;28;20052;-53
2022/04/09 21:26:06;;;;;;;3.10;1.17;;;17.20;62.30;;;;;;10454408;28;20409;-51
2022/04/09 21:31:08;;;;;;;1.50;1.02;;;17.20;62.00;;;;;;10453608;28;20535;-53
2022/04/09 21:36:09;;;;;;;2.03;0.80;;;17.20;62.00;;;;;;10463277;28;20028;-53
2022/04/09 21:41:11;;;;;;;2.15;0.88;;;17.20;62.10;;;;;;10453719;28;20107;-53
2022/04/09 21:46:12;;;;;;;3.05;0.82;;;17.20;61.80;;;;;;10453802;28;20055;-53
2022/04/09 21:51:13;;;;;;;2.50;0.90;;;17.20;61.90;;;;;;10453442;28;20488;-54
2022/04/09 21:56:14;;;;;;;3.88;1.02;;;17.20;61.80;;;;;;10453457;28;20032;-53
2022/04/09 22:01:15;;;;;;;2.55;0.82;;;17.20;61.80;;;;;;10453403;28;20060;-51
2022/04/09 22:06:15;;;;;;;1.38;0.52;;;17.10;61.80;;;;;;10456702;28;20028;-55
2022/04/09 22:11:16;;;;;;;1.38;0.60;;;17.20;61.60;;;;;;10461182;28;20123;-53
2022/04/09 22:16:17;;;;;;;3.00;1.17;;;17.20;61.50;;;;;;10460061;28;20104;-54
2022/04/09 22:21:17;;;;;;;1.70;0.82;;;17.20;61.70;;;;;;10460870;28;20135;-53
2022/04/09 22:26:18;;;;;;;3.33;0.80;;;17.20;61.40;;;;;;10460872;28;20056;-52
2022/04/09 22:31:19;;;;;;;1.60;0.63;;;17.20;61.50;;;;;;10460367;28;20110;-54
2022/04/09 22:36:19;;;;;;;1.35;0.63;;;17.20;61.40;;;;;;10469619;28;20436;-55
2022/04/09 22:41:20;;;;;;;1.40;0.75;;;17.20;61.30;;;;;;10458918;28;20029;-54
2022/04/09 22:46:20;;;;;;;1.45;0.70;;;17.20;61.40;;;;;;10460122;28;20036;-53
2022/04/09 22:51:21;;;;;;;1.00;0.60;;;17.20;61.20;;;;;;10458462;28;20438;-55
2022/04/09 22:56:22;;;;;;;1.02;0.65;;;17.20;61.20;;;;;;10459766;28;20061;-53
2022/04/09 23:01:22;;;;;;;3.20;1.10;;;17.20;61.30;;;;;;10459434;28;20060;-53
2022/04/09 23:06:23;;;;;;;1.40;0.50;;;17.20;61.10;;;;;;10459562;28;20029;-54
2022/04/09 23:11:24;;;;;;;1.83;0.63;;;17.20;61.20;;;;;;10458607;28;20032;-54
2022/04/09 23:16:24;;;;;;;1.70;0.85;;;17.20;61.10;;;;;;10458304;28;20365;-54
2022/04/09 23:21:25;;;;;;;4.47;1.02;;;17.20;60.90;;;;;;10458635;28;20676;-53
2022/04/09 23:26:26;;;;;;;3.65;0.80;;;17.20;61.00;;;;;;10458747;28;20110;-54
2022/04/09 23:31:27;;;;;;;1.88;0.70;;;17.20;60.80;;;;;;10456838;28;20120;-53
2022/04/09 23:36:27;;;;;;;1.15;0.63;;;17.20;60.80;;;;;;10468151;28;20055;-55
2022/04/09 23:41:28;;;;;;;2.00;0.80;;;17.20;60.90;;;;;;10456390;28;20029;-52
2022/04/09 23:46:29;;;;;;;0.40;0.30;;;17.20;60.90;;;;;;10457557;28;20029;-54
2022/04/09 23:51:30;;;;;;;0.75;0.50;;;17.20;60.80;;;;;;10456057;28;20104;-53
2022/04/09 23:56:31;;;;;;;1.60;0.60;;;17.10;60.90;;;;;;10456054;28;20021;-54
